Murdo, SD (57559)

6:41 PM MDT on July 07, 2015 (GMT -0600)
Pierre Regional | | Change Station
CLOSE
Current Station
Airport
Location: Pierre,
Elevation: 1742 ft
Nearby Weather Stations

Elev 1742 ft 44.38 °N, 100.29 °W | Updated 48 minutes ago

Clear
Clear
71 °F
Feels Like 71 °F
N
16
Wind Variable Wind from SSE
Gusts 24 mph

Today
High -- | Low -- °F
--% Chance of Precip.
Yesterday
High -- | Low -- °F
Precip. -- in
5:07 AM 8:27 PM
Waning Gibbous, 59% visible
Pressure 30.01 in
Visibility 10.0 miles
Clouds Mostly Cloudy 9000 ft
Dew Point 57 °F
Humidity 61%
Rainfall 0.00 in
Snow Depth Not available.
UV 1 out of 12
Pollen 3.20 out of 12
Air Quality Not available.
Flu Activity Not available.
METAR KPIR 072353Z AUTO 15014G21KT 10SM BKN090 22/14 A3002 RMK AO2 SLP163 T02170139 10239 20211 58014

More Conditions Fewer Conditions

Pressure 30.01 in
Visibility 10.0 miles
Clouds Mostly Cloudy 9000 ft
Dew Point 57 °F
Humidity 61%
Rainfall 0.00 in
Snow Depth Not available.
UV 1 out of 12
Pollen 3.20 out of 12
Air Quality Not available.
Flu Activity Not available.
METAR KPIR 072353Z AUTO 15014G21KT 10SM BKN090 22/14 A3002 RMK AO2 SLP163 T02170139 10239 20211 58014

More Conditions Fewer Conditions

10-Day Weather Forecast

×

Almanac

Astronomy

Jul. 07, 2015 Rise Set
Actual Time
Civil Twilight
Nautical Twilight
Astronomical Twilight
Moon
Length of Visible Light
Length of Day
Tomorrow will be .
, % of the Moon is Illuminated

Today's Extremes

State Highs State Lows

Community

WunderPhotos

Upload Photos

1,835,978 photos uploaded!

WunderBlogs® & News

Nearby

Air Quality

  Air Quality AQ Index Pollutant
Not available.

Snow Depth

Station Depth Elevation

Earthquake Activity

City Distance Mag. Time & Date
Minimum magnitude displayed is 2.5.

Coastal Water Temperatures

Place Temperature

Stations

Nearby Weather Stations

Station Location Temp. Windchill Dew Point Humidity Wind Precip. Elev Updated Type